South Mountain, Pennsylvania
Current Conditions -  °F | °C
As of 12:53 AM on Tuesday 21 Oct 2014 (Local Time) from KRYT Reporting Station
Haze Haze  
Wind Chill: 50°   Ceiling: 7000
Heat Index: 50°   Visibility: 1.7mi
Dew Point: 48°   Wind: 0mph
Humidity: 93%   Direction: NA
Pressure: 29.89"   Gusts: NA
Location:  39.85°N, 77.49°W
Report Text: KRYT 210453Z AUTO 00000KT 1 3/4SM BR FEW001 BKN070 OVC100 10/09 A2989 RMK AO2 RAE13 SLP122 P0001 T01000089 401500022 $
Loading
Personal Weather Stations






























Interactive Weather Map
Tropical Storm Tracking
New forecast layout! Learn more

10-Day Weather Forecast

Advertisements
Track Severe Weather on mobile